sensor_id;sensor_type;location;lat;lon;timestamp;temperature;humidity
53146;DHT22;39042;53.150;5.898;2023-05-29T00:01:23;8.10;99.90
53146;DHT22;39042;53.150;5.898;2023-05-29T00:03:49;8.00;99.90
53146;DHT22;39042;53.150;5.898;2023-05-29T00:06:16;8.00;99.90
53146;DHT22;39042;53.150;5.898;2023-05-29T00:08:41;8.00;99.90
53146;DHT22;39042;53.150;5.898;2023-05-29T00:11:07;8.00;99.90
53146;DHT22;39042;53.150;5.898;2023-05-29T00:13:33;8.00;99.90
53146;DHT22;39042;53.150;5.898;2023-05-29T00:15:59;8.00;99.90
53146;DHT22;39042;53.150;5.898;2023-05-29T00:18:26;8.00;99.90
53146;DHT22;39042;53.150;5.898;2023-05-29T00:20:52;8.00;99.90
53146;DHT22;39042;53.150;5.898;2023-05-29T00:23:19;8.00;99.90
53146;DHT22;39042;53.150;5.898;2023-05-29T00:25:45;8.00;99.90
53146;DHT22;39042;53.150;5.898;2023-05-29T00:28:10;8.00;99.90
53146;DHT22;39042;53.150;5.898;2023-05-29T00:30:38;7.90;99.90
53146;DHT22;39042;53.150;5.898;2023-05-29T00:33:05;8.00;99.90
53146;DHT22;39042;53.150;5.898;2023-05-29T00:35:31;7.90;99.90
53146;DHT22;39042;53.150;5.898;2023-05-29T00:37:57;7.90;99.90
53146;DHT22;39042;53.150;5.898;2023-05-29T00:40:24;7.90;99.90
53146;DHT22;39042;53.150;5.898;2023-05-29T00:42:50;7.90;99.90
53146;DHT22;39042;53.150;5.898;2023-05-29T00:45:16;7.80;99.90
53146;DHT22;39042;53.150;5.898;2023-05-29T00:47:42;7.80;99.90
53146;DHT22;39042;53.150;5.898;2023-05-29T00:50:09;7.80;99.90
53146;DHT22;39042;53.150;5.898;2023-05-29T00:52:37;7.70;99.90
53146;DHT22;39042;53.150;5.898;2023-05-29T00:55:04;7.70;99.90
53146;DHT22;39042;53.150;5.898;2023-05-29T00:57:30;7.60;99.90
53146;DHT22;39042;53.150;5.898;2023-05-29T00:59:58;7.60;99.90
53146;DHT22;39042;53.150;5.898;2023-05-29T01:02:25;7.50;99.90
53146;DHT22;39042;53.150;5.898;2023-05-29T01:04:51;7.50;99.90
53146;DHT22;39042;53.150;5.898;2023-05-29T01:07:20;7.50;99.90
53146;DHT22;39042;53.150;5.898;2023-05-29T01:09:46;7.40;99.90
53146;DHT22;39042;53.150;5.898;2023-05-29T01:12:49;7.40;99.90
53146;DHT22;39042;53.150;5.898;2023-05-29T01:15:46;7.40;99.90
53146;DHT22;39042;53.150;5.898;2023-05-29T01:29:07;7.30;99.90
53146;DHT22;39042;53.150;5.898;2023-05-29T01:31:33;7.30;99.90
53146;DHT22;39042;53.150;5.898;2023-05-29T01:34:02;7.30;99.90
53146;DHT22;39042;53.150;5.898;2023-05-29T01:36:28;7.30;99.90
53146;DHT22;39042;53.150;5.898;2023-05-29T01:38:56;7.20;99.90
53146;DHT22;39042;53.150;5.898;2023-05-29T01:41:23;7.20;99.90
53146;DHT22;39042;53.150;5.898;2023-05-29T01:43:50;7.30;99.90
53146;DHT22;39042;53.150;5.898;2023-05-29T01:46:18;7.30;99.90
53146;DHT22;39042;53.150;5.898;2023-05-29T01:48:44;7.30;99.90
53146;DHT22;39042;53.150;5.898;2023-05-29T01:51:11;7.30;99.90
53146;DHT22;39042;53.150;5.898;2023-05-29T01:53:42;7.30;99.90
53146;DHT22;39042;53.150;5.898;2023-05-29T01:56:08;7.20;99.90
53146;DHT22;39042;53.150;5.898;2023-05-29T01:58:35;7.20;99.90
53146;DHT22;39042;53.150;5.898;2023-05-29T02:01:01;7.30;99.90
53146;DHT22;39042;53.150;5.898;2023-05-29T02:03:27;7.20;99.90
53146;DHT22;39042;53.150;5.898;2023-05-29T02:05:59;7.20;99.90
53146;DHT22;39042;53.150;5.898;2023-05-29T02:08:26;7.20;99.90
53146;DHT22;39042;53.150;5.898;2023-05-29T02:10:52;7.20;99.90
53146;DHT22;39042;53.150;5.898;2023-05-29T02:13:21;7.30;99.90
53146;DHT22;39042;53.150;5.898;2023-05-29T02:15:47;7.20;99.90
53146;DHT22;39042;53.150;5.898;2023-05-29T02:18:15;7.20;99.90
53146;DHT22;39042;53.150;5.898;2023-05-29T02:20:44;7.20;99.90
53146;DHT22;39042;53.150;5.898;2023-05-29T02:23:10;7.20;99.90
53146;DHT22;39042;53.150;5.898;2023-05-29T02:25:36;7.30;99.90
53146;DHT22;39042;53.150;5.898;2023-05-29T02:28:02;7.30;99.90
53146;DHT22;39042;53.150;5.898;2023-05-29T02:30:29;7.40;99.90
53146;DHT22;39042;53.150;5.898;2023-05-29T02:32:55;7.50;99.90
53146;DHT22;39042;53.150;5.898;2023-05-29T02:35:21;7.60;99.90
53146;DHT22;39042;53.150;5.898;2023-05-29T02:37:51;7.60;99.90
53146;DHT22;39042;53.150;5.898;2023-05-29T02:40:18;7.70;99.90
53146;DHT22;39042;53.150;5.898;2023-05-29T02:42:45;7.80;99.90
53146;DHT22;39042;53.150;5.898;2023-05-29T02:45:11;7.80;99.90
53146;DHT22;39042;53.150;5.898;2023-05-29T02:47:38;7.90;99.90
53146;DHT22;39042;53.150;5.898;2023-05-29T02:50:04;8.00;99.90
53146;DHT22;39042;53.150;5.898;2023-05-29T02:52:32;8.10;99.90
53146;DHT22;39042;53.150;5.898;2023-05-29T02:54:58;8.20;99.90
53146;DHT22;39042;53.150;5.898;2023-05-29T02:57:24;8.30;99.90
53146;DHT22;39042;53.150;5.898;2023-05-29T02:59:50;8.40;99.90
53146;DHT22;39042;53.150;5.898;2023-05-29T03:02:17;8.40;99.90
53146;DHT22;39042;53.150;5.898;2023-05-29T03:04:44;8.40;99.90
53146;DHT22;39042;53.150;5.898;2023-05-29T03:07:12;8.40;99.90
53146;DHT22;39042;53.150;5.898;2023-05-29T03:09:38;8.50;99.90
53146;DHT22;39042;53.150;5.898;2023-05-29T03:12:04;8.60;99.90
53146;DHT22;39042;53.150;5.898;2023-05-29T03:14:32;8.70;99.90
53146;DHT22;39042;53.150;5.898;2023-05-29T03:17:06;8.80;99.90
53146;DHT22;39042;53.150;5.898;2023-05-29T03:19:33;8.80;99.90
53146;DHT22;39042;53.150;5.898;2023-05-29T03:21:59;8.80;99.90
53146;DHT22;39042;53.150;5.898;2023-05-29T03:24:25;8.90;99.90
53146;DHT22;39042;53.150;5.898;2023-05-29T03:26:51;8.90;99.90
53146;DHT22;39042;53.150;5.898;2023-05-29T03:29:18;8.90;99.90
53146;DHT22;39042;53.150;5.898;2023-05-29T03:31:44;8.90;99.90
53146;DHT22;39042;53.150;5.898;2023-05-29T03:34:12;9.00;99.90
53146;DHT22;39042;53.150;5.898;2023-05-29T03:36:41;9.00;99.90
53146;DHT22;39042;53.150;5.898;2023-05-29T03:39:08;9.00;99.90
53146;DHT22;39042;53.150;5.898;2023-05-29T03:41:34;9.10;99.90
53146;DHT22;39042;53.150;5.898;2023-05-29T03:44:02;9.10;99.90
53146;DHT22;39042;53.150;5.898;2023-05-29T03:46:29;9.10;99.90
53146;DHT22;39042;53.150;5.898;2023-05-29T03:48:55;9.20;99.90
53146;DHT22;39042;53.150;5.898;2023-05-29T03:51:21;9.20;99.90
53146;DHT22;39042;53.150;5.898;2023-05-29T03:53:48;9.30;99.90
53146;DHT22;39042;53.150;5.898;2023-05-29T03:56:14;9.30;99.90
53146;DHT22;39042;53.150;5.898;2023-05-29T03:58:40;9.30;99.90
53146;DHT22;39042;53.150;5.898;2023-05-29T04:01:07;9.40;99.90
53146;DHT22;39042;53.150;5.898;2023-05-29T04:03:34;9.50;99.90
53146;DHT22;39042;53.150;5.898;2023-05-29T04:06:02;9.50;99.90
53146;DHT22;39042;53.150;5.898;2023-05-29T04:08:28;9.50;99.90
53146;DHT22;39042;53.150;5.898;2023-05-29T04:10:54;9.60;99.90
53146;DHT22;39042;53.150;5.898;2023-05-29T04:13:21;9.60;99.90
53146;DHT22;39042;53.150;5.898;2023-05-29T04:15:47;9.70;99.90
53146;DHT22;39042;53.150;5.898;2023-05-29T04:18:14;9.70;99.90
53146;DHT22;39042;53.150;5.898;2023-05-29T04:20:40;9.70;99.90
53146;DHT22;39042;53.150;5.898;2023-05-29T04:23:06;9.80;99.90
53146;DHT22;39042;53.150;5.898;2023-05-29T04:25:33;9.80;99.90
53146;DHT22;39042;53.150;5.898;2023-05-29T04:28:00;9.90;99.90
53146;DHT22;39042;53.150;5.898;2023-05-29T04:30:28;9.90;99.90
53146;DHT22;39042;53.150;5.898;2023-05-29T04:32:55;10.00;99.90
53146;DHT22;39042;53.150;5.898;2023-05-29T04:35:23;10.10;99.90
53146;DHT22;39042;53.150;5.898;2023-05-29T04:37:55;10.20;99.90
53146;DHT22;39042;53.150;5.898;2023-05-29T04:40:22;10.40;99.90
53146;DHT22;39042;53.150;5.898;2023-05-29T04:42:49;10.50;99.90
53146;DHT22;39042;53.150;5.898;2023-05-29T04:45:18;10.50;99.90
53146;DHT22;39042;53.150;5.898;2023-05-29T04:47:46;10.60;99.90
53146;DHT22;39042;53.150;5.898;2023-05-29T04:50:13;10.60;99.90
53146;DHT22;39042;53.150;5.898;2023-05-29T04:52:40;10.60;99.90
53146;DHT22;39042;53.150;5.898;2023-05-29T04:55:09;10.60;99.90
53146;DHT22;39042;53.150;5.898;2023-05-29T04:57:36;10.70;99.90
53146;DHT22;39042;53.150;5.898;2023-05-29T05:00:04;10.70;99.90
53146;DHT22;39042;53.150;5.898;2023-05-29T05:02:36;10.90;99.90
53146;DHT22;39042;53.150;5.898;2023-05-29T05:05:02;11.00;99.90
53146;DHT22;39042;53.150;5.898;2023-05-29T05:07:28;11.10;99.90
53146;DHT22;39042;53.150;5.898;2023-05-29T05:09:54;11.10;99.90
53146;DHT22;39042;53.150;5.898;2023-05-29T05:12:24;11.20;99.90
53146;DHT22;39042;53.150;5.898;2023-05-29T05:14:50;11.20;99.90
53146;DHT22;39042;53.150;5.898;2023-05-29T05:17:16;11.30;99.90
53146;DHT22;39042;53.150;5.898;2023-05-29T05:19:42;11.30;99.90
53146;DHT22;39042;53.150;5.898;2023-05-29T05:22:08;11.40;99.90
53146;DHT22;39042;53.150;5.898;2023-05-29T05:24:34;11.40;99.90
53146;DHT22;39042;53.150;5.898;2023-05-29T05:27:03;11.50;99.90
53146;DHT22;39042;53.150;5.898;2023-05-29T05:29:29;11.60;99.90
53146;DHT22;39042;53.150;5.898;2023-05-29T05:31:56;11.70;99.90
53146;DHT22;39042;53.150;5.898;2023-05-29T05:34:23;11.70;99.90
53146;DHT22;39042;53.150;5.898;2023-05-29T05:36:49;11.80;99.90
53146;DHT22;39042;53.150;5.898;2023-05-29T05:39:15;11.90;99.90
53146;DHT22;39042;53.150;5.898;2023-05-29T05:41:45;11.90;99.90
53146;DHT22;39042;53.150;5.898;2023-05-29T05:44:14;11.90;99.90
53146;DHT22;39042;53.150;5.898;2023-05-29T05:46:44;11.90;99.90
53146;DHT22;39042;53.150;5.898;2023-05-29T05:49:11;11.90;99.90
53146;DHT22;39042;53.150;5.898;2023-05-29T05:51:39;11.90;99.90
53146;DHT22;39042;53.150;5.898;2023-05-29T05:54:05;11.90;99.90
53146;DHT22;39042;53.150;5.898;2023-05-29T05:56:31;11.90;99.90
53146;DHT22;39042;53.150;5.898;2023-05-29T05:58:57;11.90;99.90
53146;DHT22;39042;53.150;5.898;2023-05-29T06:01:23;11.90;99.90
53146;DHT22;39042;53.150;5.898;2023-05-29T06:03:50;12.00;99.90
53146;DHT22;39042;53.150;5.898;2023-05-29T06:06:16;12.00;99.90
53146;DHT22;39042;53.150;5.898;2023-05-29T06:08:44;12.00;99.90
53146;DHT22;39042;53.150;5.898;2023-05-29T06:11:11;12.10;99.90
53146;DHT22;39042;53.150;5.898;2023-05-29T06:13:40;12.10;99.90
53146;DHT22;39042;53.150;5.898;2023-05-29T06:16:15;12.10;99.90
53146;DHT22;39042;53.150;5.898;2023-05-29T06:18:41;12.10;99.90
53146;DHT22;39042;53.150;5.898;2023-05-29T06:21:08;12.20;99.90
53146;DHT22;39042;53.150;5.898;2023-05-29T06:23:38;12.30;99.90
53146;DHT22;39042;53.150;5.898;2023-05-29T06:26:04;12.30;99.90
53146;DHT22;39042;53.150;5.898;2023-05-29T06:28:30;12.40;99.90
53146;DHT22;39042;53.150;5.898;2023-05-29T06:30:56;12.50;99.90
53146;DHT22;39042;53.150;5.898;2023-05-29T06:33:23;12.50;99.90
53146;DHT22;39042;53.150;5.898;2023-05-29T06:35:50;12.40;99.90
53146;DHT22;39042;53.150;5.898;2023-05-29T06:38:16;12.50;99.90
53146;DHT22;39042;53.150;5.898;2023-05-29T06:40:42;12.40;99.90
53146;DHT22;39042;53.150;5.898;2023-05-29T06:43:08;12.40;99.90
53146;DHT22;39042;53.150;5.898;2023-05-29T06:45:39;12.40;99.90
53146;DHT22;39042;53.150;5.898;2023-05-29T06:48:05;12.50;99.90
53146;DHT22;39042;53.150;5.898;2023-05-29T06:50:31;12.50;99.90
53146;DHT22;39042;53.150;5.898;2023-05-29T06:53:05;12.60;99.90
53146;DHT22;39042;53.150;5.898;2023-05-29T06:55:43;12.60;99.90
53146;DHT22;39042;53.150;5.898;2023-05-29T06:58:09;12.80;99.90
53146;DHT22;39042;53.150;5.898;2023-05-29T07:00:35;12.90;99.90
53146;DHT22;39042;53.150;5.898;2023-05-29T07:03:20;13.10;99.90
53146;DHT22;39042;53.150;5.898;2023-05-29T07:05:47;13.20;99.90
53146;DHT22;39042;53.150;5.898;2023-05-29T07:08:13;13.30;99.90
53146;DHT22;39042;53.150;5.898;2023-05-29T07:10:39;13.40;99.90
53146;DHT22;39042;53.150;5.898;2023-05-29T07:13:05;13.30;99.90
53146;DHT22;39042;53.150;5.898;2023-05-29T07:15:33;13.30;99.90
53146;DHT22;39042;53.150;5.898;2023-05-29T07:17:59;13.30;99.90
53146;DHT22;39042;53.150;5.898;2023-05-29T07:20:27;13.30;99.90
53146;DHT22;39042;53.150;5.898;2023-05-29T07:22:52;13.20;99.90
53146;DHT22;39042;53.150;5.898;2023-05-29T07:25:18;13.30;99.90
53146;DHT22;39042;53.150;5.898;2023-05-29T07:27:44;13.30;99.90
53146;DHT22;39042;53.150;5.898;2023-05-29T07:30:10;13.40;99.90
53146;DHT22;39042;53.150;5.898;2023-05-29T07:32:37;13.30;99.90
53146;DHT22;39042;53.150;5.898;2023-05-29T07:35:04;13.30;99.90
53146;DHT22;39042;53.150;5.898;2023-05-29T07:37:30;13.30;99.90
53146;DHT22;39042;53.150;5.898;2023-05-29T07:39:57;13.40;99.90
53146;DHT22;39042;53.150;5.898;2023-05-29T07:42:42;13.40;99.90
53146;DHT22;39042;53.150;5.898;2023-05-29T07:45:08;13.40;99.90
53146;DHT22;39042;53.150;5.898;2023-05-29T07:47:35;13.40;99.90
53146;DHT22;39042;53.150;5.898;2023-05-29T07:50:01;13.50;99.90
53146;DHT22;39042;53.150;5.898;2023-05-29T07:52:28;13.60;99.90
53146;DHT22;39042;53.150;5.898;2023-05-29T07:54:54;13.60;99.90
53146;DHT22;39042;53.150;5.898;2023-05-29T07:57:23;13.60;99.90
53146;DHT22;39042;53.150;5.898;2023-05-29T07:59:50;13.70;99.90
53146;DHT22;39042;53.150;5.898;2023-05-29T08:02:16;13.80;99.90
53146;DHT22;39042;53.150;5.898;2023-05-29T08:05:20;13.80;99.90
53146;DHT22;39042;53.150;5.898;2023-05-29T08:07:46;13.80;99.90
53146;DHT22;39042;53.150;5.898;2023-05-29T08:10:14;13.80;99.90
53146;DHT22;39042;53.150;5.898;2023-05-29T08:12:40;13.80;99.90
53146;DHT22;39042;53.150;5.898;2023-05-29T08:15:07;13.80;99.90
53146;DHT22;39042;53.150;5.898;2023-05-29T08:17:35;13.80;99.90
53146;DHT22;39042;53.150;5.898;2023-05-29T08:20:01;13.70;99.90
53146;DHT22;39042;53.150;5.898;2023-05-29T08:22:32;13.70;99.90
53146;DHT22;39042;53.150;5.898;2023-05-29T08:24:59;13.80;99.90
53146;DHT22;39042;53.150;5.898;2023-05-29T08:27:25;13.60;99.90
53146;DHT22;39042;53.150;5.898;2023-05-29T08:29:51;13.60;99.90
53146;DHT22;39042;53.150;5.898;2023-05-29T08:32:17;13.60;99.90
53146;DHT22;39042;53.150;5.898;2023-05-29T08:34:43;13.50;99.90
53146;DHT22;39042;53.150;5.898;2023-05-29T08:37:11;13.50;99.90
53146;DHT22;39042;53.150;5.898;2023-05-29T08:39:37;13.50;99.90
53146;DHT22;39042;53.150;5.898;2023-05-29T08:42:26;13.50;99.90
53146;DHT22;39042;53.150;5.898;2023-05-29T08:44:56;13.50;99.90
53146;DHT22;39042;53.150;5.898;2023-05-29T08:47:27;13.50;99.90
53146;DHT22;39042;53.150;5.898;2023-05-29T08:49:53;13.60;99.90
53146;DHT22;39042;53.150;5.898;2023-05-29T08:52:22;13.70;99.90
53146;DHT22;39042;53.150;5.898;2023-05-29T08:54:51;13.80;99.90
53146;DHT22;39042;53.150;5.898;2023-05-29T08:57:18;13.80;99.90
53146;DHT22;39042;53.150;5.898;2023-05-29T08:59:44;13.90;99.90
53146;DHT22;39042;53.150;5.898;2023-05-29T09:02:11;13.90;99.90
53146;DHT22;39042;53.150;5.898;2023-05-29T09:04:43;14.00;99.90
53146;DHT22;39042;53.150;5.898;2023-05-29T09:07:17;14.00;99.90
53146;DHT22;39042;53.150;5.898;2023-05-29T09:09:45;14.00;99.90
53146;DHT22;39042;53.150;5.898;2023-05-29T09:12:11;14.00;99.90
53146;DHT22;39042;53.150;5.898;2023-05-29T09:14:39;14.00;99.90
53146;DHT22;39042;53.150;5.898;2023-05-29T09:17:07;14.00;99.90
53146;DHT22;39042;53.150;5.898;2023-05-29T09:19:34;13.90;99.90
53146;DHT22;39042;53.150;5.898;2023-05-29T09:24:28;13.80;99.90
53146;DHT22;39042;53.150;5.898;2023-05-29T09:26:54;13.80;99.90
53146;DHT22;39042;53.150;5.898;2023-05-29T09:29:21;13.80;99.90
53146;DHT22;39042;53.150;5.898;2023-05-29T09:31:47;13.80;99.90
53146;DHT22;39042;53.150;5.898;2023-05-29T09:34:13;13.90;99.90
53146;DHT22;39042;53.150;5.898;2023-05-29T09:36:39;13.90;99.90
53146;DHT22;39042;53.150;5.898;2023-05-29T09:39:06;14.00;99.90
53146;DHT22;39042;53.150;5.898;2023-05-29T09:41:42;14.00;99.90
53146;DHT22;39042;53.150;5.898;2023-05-29T09:44:07;14.00;99.90
53146;DHT22;39042;53.150;5.898;2023-05-29T09:46:36;14.00;99.90
53146;DHT22;39042;53.150;5.898;2023-05-29T09:49:02;14.10;99.90
53146;DHT22;39042;53.150;5.898;2023-05-29T09:51:31;14.10;99.90
53146;DHT22;39042;53.150;5.898;2023-05-29T09:53:57;14.10;99.90
53146;DHT22;39042;53.150;5.898;2023-05-29T09:56:27;14.10;99.90
53146;DHT22;39042;53.150;5.898;2023-05-29T09:58:56;14.10;99.90
53146;DHT22;39042;53.150;5.898;2023-05-29T10:01:23;14.00;99.90
53146;DHT22;39042;53.150;5.898;2023-05-29T10:03:49;14.00;99.90
53146;DHT22;39042;53.150;5.898;2023-05-29T10:06:18;14.00;99.90
53146;DHT22;39042;53.150;5.898;2023-05-29T10:08:47;14.00;99.90
53146;DHT22;39042;53.150;5.898;2023-05-29T10:11:18;14.10;99.90
53146;DHT22;39042;53.150;5.898;2023-05-29T10:13:52;14.20;99.90
53146;DHT22;39042;53.150;5.898;2023-05-29T10:16:23;14.10;99.90
53146;DHT22;39042;53.150;5.898;2023-05-29T10:18:56;14.10;99.90
53146;DHT22;39042;53.150;5.898;2023-05-29T10:21:26;14.10;99.90
53146;DHT22;39042;53.150;5.898;2023-05-29T10:23:53;14.10;99.90
53146;DHT22;39042;53.150;5.898;2023-05-29T10:26:25;14.10;99.90
53146;DHT22;39042;53.150;5.898;2023-05-29T10:31:39;14.10;99.90
53146;DHT22;39042;53.150;5.898;2023-05-29T10:37:18;14.30;99.90
53146;DHT22;39042;53.150;5.898;2023-05-29T10:39:46;14.20;99.90
53146;DHT22;39042;53.150;5.898;2023-05-29T10:42:40;14.10;99.90
53146;DHT22;39042;53.150;5.898;2023-05-29T10:45:08;14.20;99.90
53146;DHT22;39042;53.150;5.898;2023-05-29T10:47:35;14.30;99.90
53146;DHT22;39042;53.150;5.898;2023-05-29T10:50:04;14.20;99.90
53146;DHT22;39042;53.150;5.898;2023-05-29T10:52:31;14.20;99.90
53146;DHT22;39042;53.150;5.898;2023-05-29T10:54:57;14.10;99.90
53146;DHT22;39042;53.150;5.898;2023-05-29T10:57:24;14.20;99.90
53146;DHT22;39042;53.150;5.898;2023-05-29T11:00:07;14.20;99.90
53146;DHT22;39042;53.150;5.898;2023-05-29T11:02:39;14.30;99.90
53146;DHT22;39042;53.150;5.898;2023-05-29T11:05:19;14.30;99.90
53146;DHT22;39042;53.150;5.898;2023-05-29T11:08:15;14.30;99.90
53146;DHT22;39042;53.150;5.898;2023-05-29T11:13:08;14.40;99.90
53146;DHT22;39042;53.150;5.898;2023-05-29T11:15:34;14.40;99.90
53146;DHT22;39042;53.150;5.898;2023-05-29T11:18:06;14.30;99.90
53146;DHT22;39042;53.150;5.898;2023-05-29T11:20:37;14.30;99.90
53146;DHT22;39042;53.150;5.898;2023-05-29T11:23:17;14.20;99.90
53146;DHT22;39042;53.150;5.898;2023-05-29T11:25:44;14.20;99.90
53146;DHT22;39042;53.150;5.898;2023-05-29T11:28:10;14.20;99.90
53146;DHT22;39042;53.150;5.898;2023-05-29T11:30:44;14.20;99.90
53146;DHT22;39042;53.150;5.898;2023-05-29T11:33:26;14.30;99.90
53146;DHT22;39042;53.150;5.898;2023-05-29T11:35:58;14.40;99.90
53146;DHT22;39042;53.150;5.898;2023-05-29T11:38:25;14.40;99.90
53146;DHT22;39042;53.150;5.898;2023-05-29T11:40:53;14.50;99.90
53146;DHT22;39042;53.150;5.898;2023-05-29T11:43:19;14.60;99.90
53146;DHT22;39042;53.150;5.898;2023-05-29T11:45:45;14.70;99.90
53146;DHT22;39042;53.150;5.898;2023-05-29T11:48:11;14.70;99.90
53146;DHT22;39042;53.150;5.898;2023-05-29T11:50:37;14.80;99.90
53146;DHT22;39042;53.150;5.898;2023-05-29T11:53:06;14.70;99.90
53146;DHT22;39042;53.150;5.898;2023-05-29T11:55:32;14.70;99.90
53146;DHT22;39042;53.150;5.898;2023-05-29T11:57:59;14.70;99.90
53146;DHT22;39042;53.150;5.898;2023-05-29T12:00:30;14.80;99.90
53146;DHT22;39042;53.150;5.898;2023-05-29T12:02:57;14.70;99.90
53146;DHT22;39042;53.150;5.898;2023-05-29T12:05:23;14.70;99.90
53146;DHT22;39042;53.150;5.898;2023-05-29T12:07:54;14.70;99.90
53146;DHT22;39042;53.150;5.898;2023-05-29T12:10:23;14.80;99.90
53146;DHT22;39042;53.150;5.898;2023-05-29T12:12:54;14.80;99.90
53146;DHT22;39042;53.150;5.898;2023-05-29T12:15:21;14.80;99.90
53146;DHT22;39042;53.150;5.898;2023-05-29T12:17:49;14.90;99.90
53146;DHT22;39042;53.150;5.898;2023-05-29T12:20:15;15.00;99.90
53146;DHT22;39042;53.150;5.898;2023-05-29T12:22:43;15.10;99.90
53146;DHT22;39042;53.150;5.898;2023-05-29T12:25:17;15.20;99.90
53146;DHT22;39042;53.150;5.898;2023-05-29T12:27:45;15.10;99.90
53146;DHT22;39042;53.150;5.898;2023-05-29T12:32:52;15.10;99.90
53146;DHT22;39042;53.150;5.898;2023-05-29T12:35:26;15.00;99.90
53146;DHT22;39042;53.150;5.898;2023-05-29T12:37:57;15.10;99.90
53146;DHT22;39042;53.150;5.898;2023-05-29T12:42:54;15.00;99.90
53146;DHT22;39042;53.150;5.898;2023-05-29T12:45:20;14.90;99.90
53146;DHT22;39042;53.150;5.898;2023-05-29T12:48:04;14.90;99.90
53146;DHT22;39042;53.150;5.898;2023-05-29T12:50:33;14.90;99.90
53146;DHT22;39042;53.150;5.898;2023-05-29T12:55:34;15.00;99.90
53146;DHT22;39042;53.150;5.898;2023-05-29T12:58:11;15.00;99.90
53146;DHT22;39042;53.150;5.898;2023-05-29T13:00:39;15.00;99.90
53146;DHT22;39042;53.150;5.898;2023-05-29T13:03:06;15.00;99.90
53146;DHT22;39042;53.150;5.898;2023-05-29T13:05:33;15.00;99.90
53146;DHT22;39042;53.150;5.898;2023-05-29T13:07:59;15.20;99.90
53146;DHT22;39042;53.150;5.898;2023-05-29T13:10:26;15.10;99.90
53146;DHT22;39042;53.150;5.898;2023-05-29T13:12:56;15.00;99.90
53146;DHT22;39042;53.150;5.898;2023-05-29T13:15:25;15.10;99.90
53146;DHT22;39042;53.150;5.898;2023-05-29T13:17:52;15.10;99.90
53146;DHT22;39042;53.150;5.898;2023-05-29T13:20:19;15.10;99.90
53146;DHT22;39042;53.150;5.898;2023-05-29T13:22:47;15.10;99.90
53146;DHT22;39042;53.150;5.898;2023-05-29T13:25:14;15.10;99.90
53146;DHT22;39042;53.150;5.898;2023-05-29T13:27:44;15.00;99.90
53146;DHT22;39042;53.150;5.898;2023-05-29T13:30:11;14.90;99.90
53146;DHT22;39042;53.150;5.898;2023-05-29T13:32:38;14.80;99.90
53146;DHT22;39042;53.150;5.898;2023-05-29T13:35:04;14.80;99.90
53146;DHT22;39042;53.150;5.898;2023-05-29T13:37:31;14.70;99.90
53146;DHT22;39042;53.150;5.898;2023-05-29T13:39:57;14.70;99.90
53146;DHT22;39042;53.150;5.898;2023-05-29T13:42:23;14.60;99.90
53146;DHT22;39042;53.150;5.898;2023-05-29T13:44:49;14.60;99.90
53146;DHT22;39042;53.150;5.898;2023-05-29T13:47:15;14.60;99.90
53146;DHT22;39042;53.150;5.898;2023-05-29T13:49:42;14.60;99.90
53146;DHT22;39042;53.150;5.898;2023-05-29T13:52:08;14.50;99.90
53146;DHT22;39042;53.150;5.898;2023-05-29T13:54:34;14.50;99.90
53146;DHT22;39042;53.150;5.898;2023-05-29T13:57:02;14.50;99.90
53146;DHT22;39042;53.150;5.898;2023-05-29T13:59:30;14.50;99.90
53146;DHT22;39042;53.150;5.898;2023-05-29T14:01:55;14.60;99.90
53146;DHT22;39042;53.150;5.898;2023-05-29T14:04:21;14.60;99.90
53146;DHT22;39042;53.150;5.898;2023-05-29T14:06:47;14.50;99.90
53146;DHT22;39042;53.150;5.898;2023-05-29T14:09:13;14.40;99.90
53146;DHT22;39042;53.150;5.898;2023-05-29T14:11:40;14.40;99.90
53146;DHT22;39042;53.150;5.898;2023-05-29T14:14:06;14.30;99.90
53146;DHT22;39042;53.150;5.898;2023-05-29T14:16:33;14.40;99.90
53146;DHT22;39042;53.150;5.898;2023-05-29T14:18:59;14.50;99.90
53146;DHT22;39042;53.150;5.898;2023-05-29T14:21:25;14.40;99.90
53146;DHT22;39042;53.150;5.898;2023-05-29T14:23:51;14.40;99.90
53146;DHT22;39042;53.150;5.898;2023-05-29T14:26:17;14.40;99.90
53146;DHT22;39042;53.150;5.898;2023-05-29T14:28:44;14.40;99.90
53146;DHT22;39042;53.150;5.898;2023-05-29T14:31:10;14.40;99.90
53146;DHT22;39042;53.150;5.898;2023-05-29T14:33:36;14.40;99.90
53146;DHT22;39042;53.150;5.898;2023-05-29T14:36:04;14.50;99.90
53146;DHT22;39042;53.150;5.898;2023-05-29T14:38:30;14.60;99.90
53146;DHT22;39042;53.150;5.898;2023-05-29T14:40:56;14.60;99.90
53146;DHT22;39042;53.150;5.898;2023-05-29T14:43:22;14.60;99.90
53146;DHT22;39042;53.150;5.898;2023-05-29T14:45:47;14.50;99.90
53146;DHT22;39042;53.150;5.898;2023-05-29T14:48:13;14.40;99.90
53146;DHT22;39042;53.150;5.898;2023-05-29T14:50:43;14.50;99.90
53146;DHT22;39042;53.150;5.898;2023-05-29T14:53:08;14.60;99.90
53146;DHT22;39042;53.150;5.898;2023-05-29T14:55:34;14.60;99.70
53146;DHT22;39042;53.150;5.898;2023-05-29T14:58:06;14.50;99.40
53146;DHT22;39042;53.150;5.898;2023-05-29T15:00:32;14.60;99.50
53146;DHT22;39042;53.150;5.898;2023-05-29T15:02:57;14.60;99.90
53146;DHT22;39042;53.150;5.898;2023-05-29T15:05:28;14.60;99.90
53146;DHT22;39042;53.150;5.898;2023-05-29T15:07:54;14.70;99.90
53146;DHT22;39042;53.150;5.898;2023-05-29T15:10:25;14.60;99.90
53146;DHT22;39042;53.150;5.898;2023-05-29T15:12:54;14.60;99.90
53146;DHT22;39042;53.150;5.898;2023-05-29T15:15:26;14.60;99.90
53146;DHT22;39042;53.150;5.898;2023-05-29T15:17:59;14.60;99.90
53146;DHT22;39042;53.150;5.898;2023-05-29T15:20:26;14.60;99.90
53146;DHT22;39042;53.150;5.898;2023-05-29T15:22:53;14.50;99.90
53146;DHT22;39042;53.150;5.898;2023-05-29T15:25:20;14.40;99.90
53146;DHT22;39042;53.150;5.898;2023-05-29T15:27:46;14.40;99.90
53146;DHT22;39042;53.150;5.898;2023-05-29T15:30:17;14.40;99.90
53146;DHT22;39042;53.150;5.898;2023-05-29T15:32:45;14.40;99.90
53146;DHT22;39042;53.150;5.898;2023-05-29T15:35:14;14.20;99.90
53146;DHT22;39042;53.150;5.898;2023-05-29T15:37:42;14.20;99.90
53146;DHT22;39042;53.150;5.898;2023-05-29T15:40:08;14.30;99.90
53146;DHT22;39042;53.150;5.898;2023-05-29T15:42:37;14.30;99.90
53146;DHT22;39042;53.150;5.898;2023-05-29T15:45:03;14.30;99.90
53146;DHT22;39042;53.150;5.898;2023-05-29T15:47:30;14.30;99.90
53146;DHT22;39042;53.150;5.898;2023-05-29T15:49:56;14.30;99.90
53146;DHT22;39042;53.150;5.898;2023-05-29T15:52:24;14.40;99.90
53146;DHT22;39042;53.150;5.898;2023-05-29T15:54:50;14.40;99.90
53146;DHT22;39042;53.150;5.898;2023-05-29T15:57:16;14.40;99.90
53146;DHT22;39042;53.150;5.898;2023-05-29T15:59:42;14.40;99.90
53146;DHT22;39042;53.150;5.898;2023-05-29T16:02:08;14.40;99.90
53146;DHT22;39042;53.150;5.898;2023-05-29T16:04:34;14.30;99.90
53146;DHT22;39042;53.150;5.898;2023-05-29T16:07:00;14.30;99.90
53146;DHT22;39042;53.150;5.898;2023-05-29T16:09:27;14.20;99.90